sensor_id;sensor_type;location;lat;lon;timestamp;pressure;altitude;pressure_sealevel;temperature;humidity
21902;BME280;11115;46.038;14.612;2022-08-11T00:01:09;98805.91;;;15.41;100.00
21902;BME280;11115;46.038;14.612;2022-08-11T00:03:49;98807.72;;;15.46;100.00
21902;BME280;11115;46.038;14.612;2022-08-11T00:06:35;98803.50;;;15.78;100.00
21902;BME280;11115;46.038;14.612;2022-08-11T00:09:16;98805.09;;;15.88;100.00
21902;BME280;11115;46.038;14.612;2022-08-11T00:11:51;98799.03;;;15.86;100.00
21902;BME280;11115;46.038;14.612;2022-08-11T00:14:33;98802.00;;;15.81;100.00
21902;BME280;11115;46.038;14.612;2022-08-11T00:17:08;98803.88;;;15.68;100.00
21902;BME280;11115;46.038;14.612;2022-08-11T00:19:59;98812.66;;;15.78;100.00
21902;BME280;11115;46.038;14.612;2022-08-11T00:22:52;98792.41;;;15.61;100.00
21902;BME280;11115;46.038;14.612;2022-08-11T00:25:37;98814.16;;;15.76;100.00
21902;BME280;11115;46.038;14.612;2022-08-11T00:31:07;98807.31;;;15.01;100.00
21902;BME280;11115;46.038;14.612;2022-08-11T00:33:50;98807.19;;;14.80;100.00
21902;BME280;11115;46.038;14.612;2022-08-11T00:36:58;98805.69;;;14.91;100.00
21902;BME280;11115;46.038;14.612;2022-08-11T00:39:41;98803.94;;;15.42;100.00
21902;BME280;11115;46.038;14.612;2022-08-11T00:43:23;98805.84;;;15.67;
21902;BME280;11115;46.038;14.612;2022-08-11T00:45:45;98812.13;;;15.47;100.00
21902;BME280;11115;46.038;14.612;2022-08-11T00:49:05;98807.25;;;15.35;100.00
21902;BME280;11115;46.038;14.612;2022-08-11T01:04:27;98806.94;;;15.19;100.00
21902;BME280;11115;46.038;14.612;2022-08-11T01:51:36;98811.91;;;14.97;100.00
21902;BME280;11115;46.038;14.612;2022-08-11T01:54:27;98810.75;;;14.98;100.00
21902;BME280;11115;46.038;14.612;2022-08-11T02:00:25;98811.75;;;14.93;100.00
21902;BME280;11115;46.038;14.612;2022-08-11T02:04:08;98807.34;;;14.92;100.00
21902;BME280;11115;46.038;14.612;2022-08-11T02:06:47;98802.09;;;14.82;100.00
21902;BME280;11115;46.038;14.612;2022-08-11T02:13:31;98800.00;;;14.53;100.00
21902;BME280;11115;46.038;14.612;2022-08-11T02:19:22;98797.22;;;14.53;100.00
21902;BME280;11115;46.038;14.612;2022-08-11T02:28:28;98801.13;;;14.52;100.00
21902;BME280;11115;46.038;14.612;2022-08-11T02:35:02;98798.94;;;14.23;100.00
21902;BME280;11115;46.038;14.612;2022-08-11T02:38:09;98802.38;;;14.11;100.00
21902;BME280;11115;46.038;14.612;2022-08-11T02:41:08;98806.13;;;14.24;100.00
21902;BME280;11115;46.038;14.612;2022-08-11T02:51:01;98802.06;;;14.39;100.00
21902;BME280;11115;46.038;14.612;2022-08-11T02:53:48;98805.66;;;14.39;100.00
21902;BME280;11115;46.038;14.612;2022-08-11T02:56:45;98794.53;;;14.39;100.00
21902;BME280;11115;46.038;14.612;2022-08-11T02:59:49;98797.66;;;14.38;100.00
21902;BME280;11115;46.038;14.612;2022-08-11T03:08:58;98805.81;;;14.17;100.00
21902;BME280;11115;46.038;14.612;2022-08-11T03:12:08;98797.78;;;14.24;100.00
21902;BME280;11115;46.038;14.612;2022-08-11T03:15:40;98780.66;;;14.56;100.00
21902;BME280;11115;46.038;14.612;2022-08-11T03:18:42;98801.47;;;14.50;100.00
21902;BME280;11115;46.038;14.612;2022-08-11T03:21:34;98807.66;;;14.30;100.00
21902;BME280;11115;46.038;14.612;2022-08-11T03:27:38;98797.91;;;14.02;100.00
21902;BME280;11115;46.038;14.612;2022-08-11T03:30:41;98801.78;;;13.35;100.00
21902;BME280;11115;46.038;14.612;2022-08-11T03:33:21;98796.34;;;13.30;100.00
21902;BME280;11115;46.038;14.612;2022-08-11T03:45:58;98787.84;;;13.66;100.00
21902;BME280;11115;46.038;14.612;2022-08-11T03:55:13;98807.34;;;13.35;100.00
21902;BME280;11115;46.038;14.612;2022-08-11T03:58:23;98804.69;;;13.07;100.00
21902;BME280;11115;46.038;14.612;2022-08-11T04:01:46;98805.78;;;13.20;100.00
21902;BME280;11115;46.038;14.612;2022-08-11T04:16:39;98805.28;;;14.06;100.00
21902;BME280;11115;46.038;14.612;2022-08-11T04:36:09;98810.53;;;13.99;100.00
21902;BME280;11115;46.038;14.612;2022-08-11T05:02:35;98824.16;;;14.18;100.00
21902;BME280;11115;46.038;14.612;2022-08-11T05:12:14;98830.81;;;14.00;100.00
21902;BME280;11115;46.038;14.612;2022-08-11T05:14:50;98829.88;;;14.13;100.00
21902;BME280;11115;46.038;14.612;2022-08-11T05:20:53;98834.81;;;14.42;100.00
21902;BME280;11115;46.038;14.612;2022-08-11T05:23:53;98833.72;;;14.51;100.00
21902;BME280;11115;46.038;14.612;2022-08-11T05:26:48;98843.38;;;14.80;100.00
21902;BME280;11115;46.038;14.612;2022-08-11T05:30:03;98843.03;;;15.25;100.00
21902;BME280;11115;46.038;14.612;2022-08-11T05:33:03;98844.28;;;15.44;100.00
21902;BME280;11115;46.038;14.612;2022-08-11T05:36:26;98841.38;;;15.88;100.00
21902;BME280;11115;46.038;14.612;2022-08-11T05:39:01;98835.59;;;15.93;100.00
21902;BME280;11115;46.038;14.612;2022-08-11T05:42:05;98827.94;;;16.11;100.00
21902;BME280;11115;46.038;14.612;2022-08-11T05:45:17;98826.25;;;16.18;100.00
21902;BME280;11115;46.038;14.612;2022-08-11T05:48:34;98825.19;;;16.31;100.00
21902;BME280;11115;46.038;14.612;2022-08-11T05:51:23;98826.34;;;16.30;100.00
21902;BME280;11115;46.038;14.612;2022-08-11T05:54:25;98828.00;;;16.52;100.00
21902;BME280;11115;46.038;14.612;2022-08-11T05:57:23;98839.28;;;16.56;100.00
21902;BME280;11115;46.038;14.612;2022-08-11T06:00:19;98825.53;;;16.51;100.00
21902;BME280;11115;46.038;14.612;2022-08-11T06:02:55;98816.47;;;16.54;100.00
21902;BME280;11115;46.038;14.612;2022-08-11T06:05:34;98822.78;;;16.72;100.00
21902;BME280;11115;46.038;14.612;2022-08-11T06:08:27;98823.72;;;16.96;100.00
21902;BME280;11115;46.038;14.612;2022-08-11T06:11:03;98834.25;;;17.12;100.00
21902;BME280;11115;46.038;14.612;2022-08-11T06:13:43;98829.59;;;17.16;100.00
21902;BME280;11115;46.038;14.612;2022-08-11T06:16:26;98834.56;;;16.98;100.00
21902;BME280;11115;46.038;14.612;2022-08-11T06:19:00;98822.50;;;16.85;100.00
21902;BME280;11115;46.038;14.612;2022-08-11T06:21:33;98814.69;;;16.79;100.00
21902;BME280;11115;46.038;14.612;2022-08-11T06:24:13;98803.28;;;16.84;100.00
21902;BME280;11115;46.038;14.612;2022-08-11T06:26:51;98781.28;;;16.61;100.00
21902;BME280;11115;46.038;14.612;2022-08-11T06:29:49;98820.97;;;17.09;100.00
21902;BME280;11115;46.038;14.612;2022-08-11T06:32:34;98822.38;;;17.15;100.00
21902;BME280;11115;46.038;14.612;2022-08-11T06:38:16;98823.53;;;17.47;100.00
21902;BME280;11115;46.038;14.612;2022-08-11T06:41:06;98798.56;;;17.75;100.00
21902;BME280;11115;46.038;14.612;2022-08-11T06:46:47;98806.47;;;18.22;100.00
21902;BME280;11115;46.038;14.612;2022-08-11T06:49:36;98810.19;;;18.38;100.00
21902;BME280;11115;46.038;14.612;2022-08-11T06:52:38;98810.72;;;18.68;100.00
21902;BME280;11115;46.038;14.612;2022-08-11T06:55:26;98788.78;;;18.98;100.00
21902;BME280;11115;46.038;14.612;2022-08-11T06:58:39;98810.34;;;19.09;100.00
21902;BME280;11115;46.038;14.612;2022-08-11T07:04:08;98805.28;;;19.15;100.00
21902;BME280;11115;46.038;14.612;2022-08-11T07:14:07;98801.69;;;19.74;100.00
21902;BME280;11115;46.038;14.612;2022-08-11T07:17:14;98793.50;;;19.85;100.00
21902;BME280;11115;46.038;14.612;2022-08-11T07:19:56;98795.84;;;20.14;100.00
21902;BME280;11115;46.038;14.612;2022-08-11T07:23:00;98785.59;;;20.22;100.00
21902;BME280;11115;46.038;14.612;2022-08-11T07:25:51;98783.28;;;20.43;100.00
21902;BME280;11115;46.038;14.612;2022-08-11T07:28:44;98780.97;;;20.45;100.00
21902;BME280;11115;46.038;14.612;2022-08-11T07:31:36;98784.75;;;20.37;100.00
21902;BME280;11115;46.038;14.612;2022-08-11T07:34:34;98783.19;;;20.75;100.00
21902;BME280;11115;46.038;14.612;2022-08-11T07:37:13;98777.81;;;20.85;100.00
21902;BME280;11115;46.038;14.612;2022-08-11T07:39:47;98775.34;;;21.03;100.00
21902;BME280;11115;46.038;14.612;2022-08-11T07:42:30;98765.06;;;21.11;100.00
21902;BME280;11115;46.038;14.612;2022-08-11T07:45:07;98775.81;;;21.47;100.00
21902;BME280;11115;46.038;14.612;2022-08-11T07:48:00;98778.44;;;21.37;100.00
21902;BME280;11115;46.038;14.612;2022-08-11T07:50:51;98778.00;;;21.58;100.00
21902;BME280;11115;46.038;14.612;2022-08-11T07:53:40;98754.59;;;21.76;100.00
21902;BME280;11115;46.038;14.612;2022-08-11T07:56:39;98773.34;;;21.92;100.00
21902;BME280;11115;46.038;14.612;2022-08-11T07:59:34;98777.75;;;22.12;100.00
21902;BME280;11115;46.038;14.612;2022-08-11T08:02:43;98769.06;;;22.51;100.00
21902;BME280;11115;46.038;14.612;2022-08-11T08:05:33;98763.84;;;22.53;100.00
21902;BME280;11115;46.038;14.612;2022-08-11T08:08:21;98760.50;;;22.73;100.00
21902;BME280;11115;46.038;14.612;2022-08-11T08:11:10;98764.31;;;22.85;100.00
21902;BME280;11115;46.038;14.612;2022-08-11T08:14:00;98772.94;;;22.99;100.00
21902;BME280;11115;46.038;14.612;2022-08-11T08:16:47;98762.91;;;23.01;99.95
21902;BME280;11115;46.038;14.612;2022-08-11T08:19:42;98753.78;;;23.15;100.00
21902;BME280;11115;46.038;14.612;2022-08-11T08:22:21;98761.50;;;23.22;98.93
21902;BME280;11115;46.038;14.612;2022-08-11T08:25:18;98739.91;;;23.37;100.00
21902;BME280;11115;46.038;14.612;2022-08-11T08:27:48;98759.53;;;23.63;96.94
21902;BME280;11115;46.038;14.612;2022-08-11T08:30:23;98734.22;;;23.74;100.00
21902;BME280;11115;46.038;14.612;2022-08-11T08:33:27;98739.28;;;24.05;92.57
21902;BME280;11115;46.038;14.612;2022-08-11T08:36:09;98753.44;;;24.09;89.98
21902;BME280;11115;46.038;14.612;2022-08-11T08:38:52;98751.47;;;24.13;89.81
21902;BME280;11115;46.038;14.612;2022-08-11T08:41:31;98748.72;;;24.27;88.14
21902;BME280;11115;46.038;14.612;2022-08-11T08:44:11;98749.25;;;24.43;83.64
21902;BME280;11115;46.038;14.612;2022-08-11T08:47:17;98743.78;;;24.75;85.67
21902;BME280;11115;46.038;14.612;2022-08-11T08:50:12;98746.28;;;24.98;75.82
21902;BME280;11115;46.038;14.612;2022-08-11T08:53:25;98744.25;;;24.88;76.25
21902;BME280;11115;46.038;14.612;2022-08-11T08:56:27;98746.63;;;24.79;72.19
21902;BME280;11115;46.038;14.612;2022-08-11T08:59:02;98733.56;;;24.49;73.40
21902;BME280;11115;46.038;14.612;2022-08-11T09:01:50;98733.38;;;24.25;74.37
21902;BME280;11115;46.038;14.612;2022-08-11T09:04:26;98715.91;;;24.08;74.30
21902;BME280;11115;46.038;14.612;2022-08-11T09:06:59;98726.75;;;24.65;74.96
21902;BME280;11115;46.038;14.612;2022-08-11T09:09:43;98735.69;;;24.70;68.42
21902;BME280;11115;46.038;14.612;2022-08-11T09:12:19;98729.66;;;24.82;69.04
21902;BME280;11115;46.038;14.612;2022-08-11T09:15:06;98687.13;;;24.54;67.43
21902;BME280;11115;46.038;14.612;2022-08-11T09:17:50;98729.34;;;25.02;67.86
21902;BME280;11115;46.038;14.612;2022-08-11T09:20:26;98718.50;;;25.43;70.72
21902;BME280;11115;46.038;14.612;2022-08-11T09:23:10;98718.53;;;25.61;66.37
21902;BME280;11115;46.038;14.612;2022-08-11T09:26:18;98711.69;;;25.65;71.19
21902;BME280;11115;46.038;14.612;2022-08-11T09:29:09;98715.72;;;26.00;66.60
21902;BME280;11115;46.038;14.612;2022-08-11T09:31:41;98713.28;;;25.98;62.02
21902;BME280;11115;46.038;14.612;2022-08-11T09:34:14;98705.19;;;26.11;63.79
21902;BME280;11115;46.038;14.612;2022-08-11T09:36:45;98708.78;;;26.47;62.92
21902;BME280;11115;46.038;14.612;2022-08-11T09:39:37;98707.88;;;26.72;60.36
21902;BME280;11115;46.038;14.612;2022-08-11T09:42:50;98705.97;;;26.19;56.68
21902;BME280;11115;46.038;14.612;2022-08-11T09:45:46;98704.00;;;25.80;56.88
21902;BME280;11115;46.038;14.612;2022-08-11T09:48:35;98695.50;;;25.94;57.57
21902;BME280;11115;46.038;14.612;2022-08-11T09:51:12;98690.59;;;26.02;57.64
21902;BME280;11115;46.038;14.612;2022-08-11T09:53:50;98688.91;;;26.51;55.04
21902;BME280;11115;46.038;14.612;2022-08-11T09:56:30;98675.44;;;26.73;51.17
21902;BME280;11115;46.038;14.612;2022-08-11T09:59:29;98684.50;;;26.36;51.30
21902;BME280;11115;46.038;14.612;2022-08-11T10:02:14;98682.47;;;26.29;49.23
21902;BME280;11115;46.038;14.612;2022-08-11T10:04:51;98676.03;;;26.11;50.14
21902;BME280;11115;46.038;14.612;2022-08-11T10:07:51;98685.38;;;25.97;51.40
21902;BME280;11115;46.038;14.612;2022-08-11T10:10:28;98681.28;;;26.12;53.26
21902;BME280;11115;46.038;14.612;2022-08-11T10:13:14;98682.13;;;26.09;54.98
21902;BME280;11115;46.038;14.612;2022-08-11T10:16:36;98674.03;;;26.04;53.31
21902;BME280;11115;46.038;14.612;2022-08-11T10:19:11;98665.06;;;26.16;56.36
21902;BME280;11115;46.038;14.612;2022-08-11T10:21:53;98655.75;;;26.19;57.76
21902;BME280;11115;46.038;14.612;2022-08-11T10:24:43;98663.63;;;26.85;55.78
21902;BME280;11115;46.038;14.612;2022-08-11T10:27:31;98664.16;;;26.58;51.36
21902;BME280;11115;46.038;14.612;2022-08-11T10:30:30;98663.03;;;26.42;50.96
21902;BME280;11115;46.038;14.612;2022-08-11T10:33:19;98666.66;;;26.42;53.97
21902;BME280;11115;46.038;14.612;2022-08-11T10:36:43;98657.34;;;26.35;52.80
21902;BME280;11115;46.038;14.612;2022-08-11T10:39:19;98661.00;;;26.21;51.30
21902;BME280;11115;46.038;14.612;2022-08-11T10:41:56;98647.63;;;26.32;51.34
21902;BME280;11115;46.038;14.612;2022-08-11T10:45:09;98648.03;;;26.38;50.48
21902;BME280;11115;46.038;14.612;2022-08-11T10:48:01;98643.16;;;26.45;52.67
21902;BME280;11115;46.038;14.612;2022-08-11T10:50:45;98641.88;;;26.53;52.79
21902;BME280;11115;46.038;14.612;2022-08-11T10:53:39;98643.47;;;26.65;52.68
21902;BME280;11115;46.038;14.612;2022-08-11T10:56:34;98646.31;;;26.58;50.72
21902;BME280;11115;46.038;14.612;2022-08-11T10:59:26;98631.53;;;26.95;49.08
21902;BME280;11115;46.038;14.612;2022-08-11T11:01:59;98623.94;;;27.37;47.04
21902;BME280;11115;46.038;14.612;2022-08-11T11:10:22;98615.50;;;27.30;43.27
21902;BME280;11115;46.038;14.612;2022-08-11T11:12:56;98627.13;;;27.46;43.02
21902;BME280;11115;46.038;14.612;2022-08-11T11:16:02;98624.69;;;27.48;43.90
21902;BME280;11115;46.038;14.612;2022-08-11T11:18:49;98626.28;;;27.49;44.53
21902;BME280;11115;46.038;14.612;2022-08-11T11:21:36;98628.09;;;28.18;44.41
21902;BME280;11115;46.038;14.612;2022-08-11T11:24:24;98613.81;;;28.22;43.02
21902;BME280;11115;46.038;14.612;2022-08-11T11:30:08;98621.66;;;28.79;42.73
21902;BME280;11115;46.038;14.612;2022-08-11T11:38:50;98612.63;;;28.19;42.78
21902;BME280;11115;46.038;14.612;2022-08-11T11:41:27;98611.00;;;28.18;43.03
21902;BME280;11115;46.038;14.612;2022-08-11T11:44:03;98609.25;;;28.31;42.00
21902;BME280;11115;46.038;14.612;2022-08-11T11:46:37;98599.31;;;27.71;41.50
21902;BME280;11115;46.038;14.612;2022-08-11T11:49:17;98587.69;;;28.64;43.11
21902;BME280;11115;46.038;14.612;2022-08-11T11:51:49;98584.69;;;28.75;41.39
21902;BME280;11115;46.038;14.612;2022-08-11T11:54:28;98586.72;;;29.05;41.60
21902;BME280;11115;46.038;14.612;2022-08-11T11:57:03;98595.19;;;28.13;39.78
21902;BME280;11115;46.038;14.612;2022-08-11T11:59:50;98583.19;;;28.36;38.79
21902;BME280;11115;46.038;14.612;2022-08-11T12:02:48;98584.50;;;28.25;38.86
21902;BME280;11115;46.038;14.612;2022-08-11T12:05:30;98563.84;;;28.82;37.93
21902;BME280;11115;46.038;14.612;2022-08-11T12:08:13;98574.56;;;28.44;38.41
21902;BME280;11115;46.038;14.612;2022-08-11T12:10:48;98576.03;;;28.82;38.91
21902;BME280;11115;46.038;14.612;2022-08-11T12:13:47;98579.84;;;29.02;38.05
21902;BME280;11115;46.038;14.612;2022-08-11T12:16:20;98556.38;;;28.64;37.45
21902;BME280;11115;46.038;14.612;2022-08-11T12:19:17;98569.69;;;28.71;38.32
21902;BME280;11115;46.038;14.612;2022-08-11T12:22:04;98566.13;;;29.21;38.16
21902;BME280;11115;46.038;14.612;2022-08-11T12:25:07;98557.34;;;29.58;39.09
21902;BME280;11115;46.038;14.612;2022-08-11T12:27:56;98568.19;;;29.87;39.32
21902;BME280;11115;46.038;14.612;2022-08-11T12:30:34;98576.16;;;29.76;37.25
21902;BME280;11115;46.038;14.612;2022-08-11T12:33:21;98562.38;;;29.94;36.02
21902;BME280;11115;46.038;14.612;2022-08-11T12:35:57;98556.47;;;30.64;38.56
21902;BME280;11115;46.038;14.612;2022-08-11T12:38:46;98545.50;;;30.23;36.74
21902;BME280;11115;46.038;14.612;2022-08-11T12:41:29;98553.59;;;30.64;35.72
21902;BME280;11115;46.038;14.612;2022-08-11T12:44:22;98548.31;;;30.99;35.78
21902;BME280;11115;46.038;14.612;2022-08-11T12:47:19;98534.44;;;30.81;35.14
21902;BME280;11115;46.038;14.612;2022-08-11T12:49:54;98562.75;;;30.75;35.00
21902;BME280;11115;46.038;14.612;2022-08-11T12:52:52;98553.13;;;30.30;34.44
21902;BME280;11115;46.038;14.612;2022-08-11T12:55:32;98544.94;;;31.36;35.97
21902;BME280;11115;46.038;14.612;2022-08-11T12:58:56;98532.94;;;30.76;33.48
21902;BME280;11115;46.038;14.612;2022-08-11T13:01:46;98529.41;;;31.05;33.27
21902;BME280;11115;46.038;14.612;2022-08-11T13:04:40;98525.34;;;30.70;34.32
21902;BME280;11115;46.038;14.612;2022-08-11T13:07:30;98531.91;;;28.97;35.41
21902;BME280;11115;46.038;14.612;2022-08-11T13:10:19;98525.00;;;29.22;37.79
21902;BME280;11115;46.038;14.612;2022-08-11T13:13:10;98531.53;;;28.95;36.60
21902;BME280;11115;46.038;14.612;2022-08-11T13:16:09;98534.44;;;28.92;39.80
21902;BME280;11115;46.038;14.612;2022-08-11T13:18:58;98524.28;;;30.04;37.20
21902;BME280;11115;46.038;14.612;2022-08-11T13:21:33;98505.81;;;31.50;35.89
21902;BME280;11115;46.038;14.612;2022-08-11T13:24:05;98511.38;;;30.92;33.63
21902;BME280;11115;46.038;14.612;2022-08-11T13:26:38;98496.72;;;29.98;34.85
21902;BME280;11115;46.038;14.612;2022-08-11T13:29:20;98501.25;;;31.52;33.46
21902;BME280;11115;46.038;14.612;2022-08-11T13:31:57;98497.88;;;31.08;34.30
21902;BME280;11115;46.038;14.612;2022-08-11T13:34:32;98491.66;;;31.59;34.82
21902;BME280;11115;46.038;14.612;2022-08-11T13:37:19;98482.78;;;30.75;34.62
21902;BME280;11115;46.038;14.612;2022-08-11T13:40:12;98485.59;;;30.03;34.62
21902;BME280;11115;46.038;14.612;2022-08-11T13:43:09;98486.34;;;31.90;33.21
21902;BME280;11115;46.038;14.612;2022-08-11T13:45:41;98499.41;;;34.03;31.42
21902;BME280;11115;46.038;14.612;2022-08-11T13:48:42;98488.94;;;33.53;29.10
21902;BME280;11115;46.038;14.612;2022-08-11T13:51:12;98483.56;;;36.69;26.80
21902;BME280;11115;46.038;14.612;2022-08-11T13:54:05;98471.03;;;36.72;25.64
21902;BME280;11115;46.038;14.612;2022-08-11T13:56:46;98464.94;;;36.80;25.75
21902;BME280;11115;46.038;14.612;2022-08-11T13:59:28;98471.69;;;38.79;24.32
21902;BME280;11115;46.038;14.612;2022-08-11T14:02:25;98473.78;;;38.64;24.00
21902;BME280;11115;46.038;14.612;2022-08-11T14:05:39;98461.28;;;40.03;23.82
21902;BME280;11115;46.038;14.612;2022-08-11T14:08:17;98468.22;;;37.92;23.88
21902;BME280;11115;46.038;14.612;2022-08-11T14:11:05;98462.53;;;39.97;23.64
21902;BME280;11115;46.038;14.612;2022-08-11T14:14:21;98445.72;;;36.86;25.26
21902;BME280;11115;46.038;14.612;2022-08-11T14:16:55;98466.28;;;36.60;24.88
21902;BME280;11115;46.038;14.612;2022-08-11T14:19:33;98451.69;;;38.96;24.22
21902;BME280;11115;46.038;14.612;2022-08-11T14:22:12;98450.00;;;39.24;23.86
21902;BME280;11115;46.038;14.612;2022-08-11T14:24:45;98446.81;;;38.87;24.11
21902;BME280;11115;46.038;14.612;2022-08-11T14:27:17;98441.31;;;35.42;27.15
21902;BME280;11115;46.038;14.612;2022-08-11T14:30:26;98447.97;;;31.75;30.21
21902;BME280;11115;46.038;14.612;2022-08-11T14:33:34;98433.88;;;31.22;29.87
21902;BME280;11115;46.038;14.612;2022-08-11T14:36:32;98439.59;;;31.06;30.31
21902;BME280;11115;46.038;14.612;2022-08-11T14:39:28;98432.38;;;31.18;33.11
21902;BME280;11115;46.038;14.612;2022-08-11T14:42:03;98438.97;;;30.82;32.66
21902;BME280;11115;46.038;14.612;2022-08-11T14:44:57;98429.75;;;30.58;32.07
21902;BME280;11115;46.038;14.612;2022-08-11T14:48:00;98435.50;;;31.07;32.12
21902;BME280;11115;46.038;14.612;2022-08-11T14:50:46;98436.22;;;32.27;29.69
21902;BME280;11115;46.038;14.612;2022-08-11T14:53:15;98428.84;;;32.77;28.48
21902;BME280;11115;46.038;14.612;2022-08-11T14:55:54;98426.41;;;35.16;28.08
21902;BME280;11115;46.038;14.612;2022-08-11T14:58:40;98422.44;;;35.77;27.78
21902;BME280;11115;46.038;14.612;2022-08-11T15:01:15;98427.91;;;36.54;25.61
21902;BME280;11115;46.038;14.612;2022-08-11T15:04:02;98419.53;;;34.64;26.97
21902;BME280;11115;46.038;14.612;2022-08-11T15:07:00;98427.63;;;34.25;27.90
21902;BME280;11115;46.038;14.612;2022-08-11T15:09:48;98424.78;;;31.85;28.99
21902;BME280;11115;46.038;14.612;2022-08-11T15:12:40;98416.38;;;31.20;31.86
21902;BME280;11115;46.038;14.612;2022-08-11T15:15:11;98422.00;;;31.53;30.62
21902;BME280;11115;46.038;14.612;2022-08-11T15:18:19;98419.00;;;32.14;30.65
21902;BME280;11115;46.038;14.612;2022-08-11T15:20:53;98416.06;;;32.81;30.59
21902;BME280;11115;46.038;14.612;2022-08-11T15:23:43;98410.06;;;32.76;35.08
21902;BME280;11115;46.038;14.612;2022-08-11T15:26:38;98413.06;;;32.34;30.25
21902;BME280;11115;46.038;14.612;2022-08-11T15:29:31;98410.50;;;33.47;29.17
21902;BME280;11115;46.038;14.612;2022-08-11T15:32:22;98407.94;;;33.14;28.69
21902;BME280;11115;46.038;14.612;2022-08-11T15:35:13;98395.38;;;31.85;29.31
21902;BME280;11115;46.038;14.612;2022-08-11T15:38:08;98404.44;;;32.09;28.97
21902;BME280;11115;46.038;14.612;2022-08-11T15:40:43;98390.81;;;32.00;31.78
21902;BME280;11115;46.038;14.612;2022-08-11T15:43:51;98382.00;;;31.53;32.22
21902;BME280;11115;46.038;14.612;2022-08-11T15:46:48;98387.78;;;31.78;32.58
21902;BME280;11115;46.038;14.612;2022-08-11T15:49:30;98390.91;;;34.42;30.25
21902;BME280;11115;46.038;14.612;2022-08-11T15:52:29;98390.38;;;34.03;29.95
21902;BME280;11115;46.038;14.612;2022-08-11T15:55:13;98383.94;;;34.30;31.52
21902;BME280;11115;46.038;14.612;2022-08-11T15:57:48;98388.34;;;34.44;29.16
21902;BME280;11115;46.038;14.612;2022-08-11T16:00:45;98384.50;;;31.92;29.72
21902;BME280;11115;46.038;14.612;2022-08-11T16:04:26;98372.81;;;33.79;29.91
21902;BME280;11115;46.038;14.612;2022-08-11T16:09:54;98387.91;;;33.93;27.51
21902;BME280;11115;46.038;14.612;2022-08-11T16:12:31;98381.09;;;33.99;27.60
21902;BME280;11115;46.038;14.612;2022-08-11T16:15:26;98371.72;;;33.20;27.82
21902;BME280;11115;46.038;14.612;2022-08-11T16:18:15;98359.84;;;31.28;28.87
21902;BME280;11115;46.038;14.612;2022-08-11T16:20:50;98364.34;;;30.15;30.85
21902;BME280;11115;46.038;14.612;2022-08-11T16:23:28;98364.75;;;29.38;31.95
21902;BME280;11115;46.038;14.612;2022-08-11T16:26:02;98359.34;;;29.43;33.58
21902;BME280;11115;46.038;14.612;2022-08-11T16:29:01;98369.41;;;29.08;33.01
21902;BME280;11115;46.038;14.612;2022-08-11T16:31:31;98366.53;;;29.08;33.63
21902;BME280;11115;46.038;14.612;2022-08-11T16:34:21;98371.72;;;28.93;33.46
21902;BME280;11115;46.038;14.612;2022-08-11T16:37:10;98364.22;;;29.23;33.93
21902;BME280;11115;46.038;14.612;2022-08-11T16:39:59;98361.03;;;29.41;34.84
21902;BME280;11115;46.038;14.612;2022-08-11T16:42:37;98361.22;;;29.30;33.82
21902;BME280;11115;46.038;14.612;2022-08-11T16:45:40;98348.22;;;29.29;34.20
21902;BME280;11115;46.038;14.612;2022-08-11T16:48:40;98353.28;;;29.41;35.52
21902;BME280;11115;46.038;14.612;2022-08-11T16:51:12;98352.72;;;28.63;34.23
21902;BME280;11115;46.038;14.612;2022-08-11T16:53:53;98330.84;;;28.80;34.04
21902;BME280;11115;46.038;14.612;2022-08-11T16:56:44;98339.28;;;28.87;37.72
21902;BME280;11115;46.038;14.612;2022-08-11T16:59:39;98345.00;;;28.84;34.92
21902;BME280;11115;46.038;14.612;2022-08-11T17:02:16;98341.94;;;28.51;34.36
21902;BME280;11115;46.038;14.612;2022-08-11T17:05:16;98346.44;;;28.72;36.38
21902;BME280;11115;46.038;14.612;2022-08-11T17:08:51;98345.56;;;28.28;35.49
21902;BME280;11115;46.038;14.612;2022-08-11T17:11:51;98344.25;;;28.33;36.90
21902;BME280;11115;46.038;14.612;2022-08-11T17:14:47;98348.56;;;28.18;38.49
21902;BME280;11115;46.038;14.612;2022-08-11T17:17:41;98343.59;;;28.25;37.77
21902;BME280;11115;46.038;14.612;2022-08-11T17:20:18;98332.03;;;28.09;37.53
21902;BME280;11115;46.038;14.612;2022-08-11T17:23:12;98354.53;;;28.00;37.67
21902;BME280;11115;46.038;14.612;2022-08-11T17:26:01;98357.19;;;27.84;39.16
21902;BME280;11115;46.038;14.612;2022-08-11T17:28:40;98354.69;;;27.55;39.15
21902;BME280;11115;46.038;14.612;2022-08-11T17:31:19;98341.63;;;27.31;39.70
21902;BME280;11115;46.038;14.612;2022-08-11T17:34:07;98342.09;;;27.26;40.16
21902;BME280;11115;46.038;14.612;2022-08-11T17:37:00;98339.53;;;26.97;41.01
21902;BME280;11115;46.038;14.612;2022-08-11T17:39:34;98341.50;;;26.66;41.10
21902;BME280;11115;46.038;14.612;2022-08-11T17:42:13;98340.56;;;26.76;41.33
21902;BME280;11115;46.038;14.612;2022-08-11T17:45:03;98345.91;;;26.71;40.72
21902;BME280;11115;46.038;14.612;2022-08-11T17:47:51;98348.16;;;26.45;42.64
21902;BME280;11115;46.038;14.612;2022-08-11T17:50:41;98349.72;;;26.53;41.18
21902;BME280;11115;46.038;14.612;2022-08-11T17:53:15;98355.06;;;26.41;42.86
21902;BME280;11115;46.038;14.612;2022-08-11T17:56:03;98352.75;;;26.21;42.77
21902;BME280;11115;46.038;14.612;2022-08-11T17:59:07;98359.66;;;26.24;42.04
21902;BME280;11115;46.038;14.612;2022-08-11T18:02:02;98354.97;;;26.03;43.51
21902;BME280;11115;46.038;14.612;2022-08-11T18:05:04;98359.91;;;25.88;43.99
21902;BME280;11115;46.038;14.612;2022-08-11T18:07:42;98376.16;;;25.77;45.06
21902;BME280;11115;46.038;14.612;2022-08-11T18:10:35;98369.41;;;25.39;47.28